Time;durP1;ratioP1;P1;durP2;ratioP2;P2;SDS_P1;SDS_P2;PMS_P1;PMS_P2;Temp;Humidity;BMP_temperature;BMP_pressure;BME280_temperature;BME280_humidity;BME280_pressure;Samples;Min_cycle;Max_cycle;Signal;HPM_P1;HPM_P2
2023/07/25 00:00:36;;;;;;;13.73;2.42;;;14.40;99.90;;;;;;4924470;29;20481;-66
2023/07/25 00:03:02;;;;;;;9.38;2.78;;;14.30;99.90;;;;;;4922967;29;20055;-67
2023/07/25 00:05:28;;;;;;;10.00;2.50;;;14.30;99.90;;;;;;4915254;29;20413;-67
2023/07/25 00:07:53;;;;;;;13.00;3.00;;;14.30;99.90;;;;;;4915484;29;20051;-67
2023/07/25 00:10:19;;;;;;;14.00;3.65;;;14.30;99.90;;;;;;4915376;29;20031;-67
2023/07/25 00:12:45;;;;;;;16.73;3.85;;;14.30;99.90;;;;;;4915042;29;20052;-67
2023/07/25 00:15:11;;;;;;;24.50;12.32;;;14.20;99.90;;;;;;4916263;29;20059;-67
2023/07/25 00:17:36;;;;;;;14.57;5.25;;;14.20;99.90;;;;;;4916187;29;20031;-67
2023/07/25 00:20:03;;;;;;;18.10;4.25;;;14.20;99.90;;;;;;4915855;29;20123;-67
2023/07/25 00:22:28;;;;;;;17.33;5.63;;;14.20;99.90;;;;;;4916304;29;20032;-67
2023/07/25 00:24:54;;;;;;;17.58;8.30;;;14.20;99.90;;;;;;4916125;29;20050;-68
2023/07/25 00:27:19;;;;;;;13.73;4.35;;;14.20;99.90;;;;;;4916329;29;20141;-68
2023/07/25 00:29:47;;;;;;;15.35;5.93;;;14.20;99.90;;;;;;4916152;29;20043;-67
2023/07/25 00:32:12;;;;;;;11.98;3.60;;;14.20;99.90;;;;;;4915831;29;20539;-67
2023/07/25 00:34:38;;;;;;;12.75;3.00;;;14.20;99.90;;;;;;4915771;29;20036;-67
2023/07/25 00:37:04;;;;;;;12.40;3.53;;;14.20;99.90;;;;;;4915252;29;20028;-66
2023/07/25 00:39:29;;;;;;;14.07;5.97;;;14.20;99.90;;;;;;4915897;29;20472;-66
2023/07/25 00:41:55;;;;;;;10.60;3.80;;;14.20;99.90;;;;;;4913995;29;20444;-67
2023/07/25 00:44:21;;;;;;;12.73;3.38;;;14.20;99.90;;;;;;4914996;29;20135;-67
2023/07/25 00:46:46;;;;;;;11.50;3.90;;;14.30;99.90;;;;;;4916068;29;20063;-67
2023/07/25 00:49:12;;;;;;;16.15;4.30;;;14.30;99.90;;;;;;4915603;29;20043;-66
2023/07/25 00:51:37;;;;;;;11.45;3.78;;;14.40;99.90;;;;;;4915823;29;20059;-66
2023/07/25 00:54:03;;;;;;;12.80;3.78;;;14.50;99.90;;;;;;4915586;29;20114;-66
2023/07/25 00:56:29;;;;;;;11.57;3.17;;;14.50;99.90;;;;;;4915926;29;20063;-67
2023/07/25 00:58:55;;;;;;;14.13;3.95;;;14.60;99.90;;;;;;4915865;29;20031;-67
2023/07/25 01:01:22;;;;;;;10.65;3.17;;;14.60;99.90;;;;;;4915547;29;20032;-67
2023/07/25 01:03:48;;;;;;;12.15;4.45;;;14.70;99.90;;;;;;4915217;29;20078;-67
2023/07/25 01:06:15;;;;;;;12.93;2.90;;;14.80;99.90;;;;;;4915812;29;20333;-67
2023/07/25 01:08:54;;;;;;;12.05;3.75;;;14.80;99.90;;;;;;4915884;29;20035;-68
2023/07/25 01:11:21;;;;;;;11.40;3.22;;;14.80;99.90;;;;;;4915853;29;20079;-67
2023/07/25 01:13:47;;;;;;;10.93;3.90;;;14.90;99.90;;;;;;4915665;29;20035;-68
2023/07/25 01:16:16;;;;;;;7.00;2.65;;;14.90;99.90;;;;;;4915196;29;20032;-68
2023/07/25 01:18:42;;;;;;;16.33;4.63;;;14.90;99.90;;;;;;4915780;29;20103;-68
2023/07/25 01:21:08;;;;;;;11.27;3.45;;;15.00;99.90;;;;;;4915641;29;20072;-67
2023/07/25 01:23:36;;;;;;;12.63;3.25;;;15.00;99.90;;;;;;4915739;29;20114;-67
2023/07/25 01:26:02;;;;;;;13.77;3.65;;;15.10;99.90;;;;;;4915434;29;20083;-68
2023/07/25 01:28:28;;;;;;;14.00;3.17;;;15.00;99.90;;;;;;4915643;29;20075;-68
2023/07/25 01:30:54;;;;;;;11.50;3.50;;;15.10;99.90;;;;;;4915499;29;20488;-67
2023/07/25 01:33:19;;;;;;;12.30;3.80;;;15.10;99.90;;;;;;4915468;29;20028;-67
2023/07/25 01:35:45;;;;;;;12.48;2.97;;;15.20;99.90;;;;;;4915742;29;20024;-68
2023/07/25 01:38:10;;;;;;;12.48;3.25;;;15.20;99.90;;;;;;4915548;29;20155;-67
2023/07/25 01:40:39;;;;;;;15.40;3.80;;;15.20;99.90;;;;;;4915729;29;20036;-68
2023/07/25 01:43:05;;;;;;;10.93;4.32;;;15.30;99.90;;;;;;4915249;29;20032;-67
2023/07/25 01:45:30;;;;;;;12.82;3.42;;;15.30;99.90;;;;;;4915257;29;20080;-67
2023/07/25 01:47:57;;;;;;;13.38;3.75;;;15.40;99.90;;;;;;4916929;29;20469;-67
2023/07/25 01:50:22;;;;;;;17.25;3.58;;;15.40;99.90;;;;;;4919098;29;20028;-69
2023/07/25 01:52:48;;;;;;;16.00;3.63;;;15.40;99.90;;;;;;4918901;29;20119;-67
2023/07/25 01:55:13;;;;;;;14.07;3.10;;;15.50;99.90;;;;;;4919003;29;20055;-67
2023/07/25 01:57:39;;;;;;;16.08;3.05;;;15.50;99.90;;;;;;4918413;29;20036;-67
2023/07/25 02:00:05;;;;;;;8.40;3.13;;;15.50;99.90;;;;;;4918391;29;20070;-67
2023/07/25 02:02:31;;;;;;;10.00;3.83;;;15.50;99.90;;;;;;4918557;29;20105;-67
2023/07/25 02:04:56;;;;;;;16.52;3.90;;;15.50;99.90;;;;;;4918360;29;20047;-67
2023/07/25 02:07:22;;;;;;;14.57;4.32;;;15.60;99.90;;;;;;4918914;29;20119;-67
2023/07/25 02:09:47;;;;;;;12.95;3.60;;;15.60;99.90;;;;;;4918418;29;20190;-67
2023/07/25 02:12:13;;;;;;;13.43;3.17;;;15.60;99.90;;;;;;4918605;29;20036;-67
2023/07/25 02:14:38;;;;;;;13.20;4.25;;;15.60;99.90;;;;;;4918145;29;20032;-67
2023/07/25 02:17:05;;;;;;;13.88;3.60;;;15.50;99.90;;;;;;4918330;29;20440;-67
2023/07/25 02:19:30;;;;;;;13.45;3.40;;;15.50;99.90;;;;;;4918591;29;20036;-67
2023/07/25 02:21:56;;;;;;;16.73;4.70;;;15.50;99.90;;;;;;4918518;29;20024;-67
2023/07/25 02:24:21;;;;;;;12.18;4.07;;;15.40;99.90;;;;;;4918259;29;20100;-66
2023/07/25 02:26:47;;;;;;;17.42;4.20;;;15.40;99.90;;;;;;4918462;29;20032;-67
2023/07/25 02:29:12;;;;;;;16.27;4.00;;;15.40;99.90;;;;;;4916846;29;20024;-67
2023/07/25 02:31:38;;;;;;;11.90;4.53;;;15.40;99.90;;;;;;4917963;29;20038;-67
2023/07/25 02:34:03;;;;;;;15.65;4.25;;;15.40;99.90;;;;;;4917961;29;20119;-67
2023/07/25 02:36:29;;;;;;;15.10;3.78;;;15.40;99.90;;;;;;4929549;29;20134;-67
2023/07/25 02:38:55;;;;;;;16.05;4.50;;;15.40;99.90;;;;;;4937261;29;20063;-67
2023/07/25 02:41:20;;;;;;;15.95;4.25;;;15.30;99.90;;;;;;4936903;29;20038;-67
2023/07/25 02:43:46;;;;;;;14.80;4.10;;;15.40;99.90;;;;;;4936341;29;20042;-68
2023/07/25 02:46:11;;;;;;;14.88;3.80;;;15.40;99.90;;;;;;4937047;29;20054;-67
2023/07/25 02:48:37;;;;;;;12.30;4.07;;;15.40;99.90;;;;;;4937045;29;20028;-67
2023/07/25 02:51:02;;;;;;;15.18;3.30;;;15.40;99.90;;;;;;4936869;29;20031;-68
2023/07/25 02:53:28;;;;;;;11.68;3.53;;;15.30;99.90;;;;;;4936677;29;20039;-67
2023/07/25 02:55:56;;;;;;;10.68;3.10;;;15.40;99.90;;;;;;4936882;29;20027;-68
2023/07/25 02:58:23;;;;;;;14.23;3.20;;;15.30;99.90;;;;;;4935995;29;20032;-68
2023/07/25 03:00:48;;;;;;;13.77;2.80;;;15.30;99.90;;;;;;4935037;29;20035;-67
2023/07/25 03:03:14;;;;;;;12.57;3.22;;;15.40;99.90;;;;;;4936458;29;20032;-67
2023/07/25 03:05:40;;;;;;;14.98;3.70;;;15.40;99.90;;;;;;4936586;29;20051;-67
2023/07/25 03:08:05;;;;;;;8.55;2.60;;;15.40;99.90;;;;;;4936629;29;20042;-67
2023/07/25 03:10:32;;;;;;;12.77;2.80;;;15.50;99.90;;;;;;4936726;29;20543;-67
2023/07/25 03:12:57;;;;;;;14.05;2.80;;;15.50;99.90;;;;;;4936235;29;20066;-67
2023/07/25 03:15:23;;;;;;;11.88;2.53;;;15.60;99.90;;;;;;4936505;29;20039;-67
2023/07/25 03:17:49;;;;;;;12.23;2.53;;;15.60;99.90;;;;;;4936472;29;20024;-67
2023/07/25 03:20:14;;;;;;;10.77;2.20;;;15.60;99.90;;;;;;4936369;29;20040;-68
2023/07/25 03:22:40;;;;;;;13.25;2.80;;;15.60;99.90;;;;;;4936454;29;20446;-67
2023/07/25 03:25:06;;;;;;;14.27;2.38;;;15.70;99.90;;;;;;4936228;29;20044;-67
2023/07/25 03:27:31;;;;;;;15.15;2.47;;;15.70;99.90;;;;;;4935875;29;20095;-68
2023/07/25 03:29:57;;;;;;;11.98;2.33;;;15.80;99.90;;;;;;4936275;29;20119;-68
2023/07/25 03:32:22;;;;;;;9.32;2.10;;;15.80;99.90;;;;;;4935987;29;20031;-67
2023/07/25 03:34:48;;;;;;;11.00;1.90;;;15.80;99.90;;;;;;4936090;29;20056;-67
2023/07/25 03:37:13;;;;;;;10.75;2.20;;;15.80;99.90;;;;;;4936077;29;20062;-67
2023/07/25 03:39:39;;;;;;;12.23;2.20;;;15.90;99.90;;;;;;4936167;29;20070;-68
2023/07/25 03:42:05;;;;;;;13.85;2.33;;;15.90;99.90;;;;;;4935533;29;20031;-67
2023/07/25 03:44:30;;;;;;;7.70;1.92;;;15.90;99.90;;;;;;4935711;29;20059;-67
2023/07/25 03:46:56;;;;;;;9.73;2.15;;;15.90;99.90;;;;;;4936158;29;20503;-67
2023/07/25 03:49:22;;;;;;;9.68;2.30;;;15.80;99.90;;;;;;4935554;29;20031;-67
2023/07/25 03:51:47;;;;;;;8.88;2.25;;;15.80;99.90;;;;;;4936000;29;20032;-67
2023/07/25 03:54:13;;;;;;;11.20;2.42;;;15.80;99.90;;;;;;4935524;29;20103;-67
2023/07/25 03:56:38;;;;;;;10.75;2.00;;;15.80;99.90;;;;;;4935061;29;20028;-67
2023/07/25 03:59:04;;;;;;;9.30;1.92;;;15.80;99.90;;;;;;4935497;29;20055;-67
2023/07/25 04:01:30;;;;;;;12.00;1.92;;;15.80;99.90;;;;;;4935742;29;20019;-66
2023/07/25 04:03:55;;;;;;;7.05;1.75;;;15.80;99.90;;;;;;4935910;29;20046;-67
2023/07/25 04:06:21;;;;;;;8.35;2.13;;;15.80;99.90;;;;;;4935437;29;20031;-66
2023/07/25 04:08:46;;;;;;;4.35;1.63;;;15.80;99.90;;;;;;4935737;29;20484;-68
2023/07/25 04:11:13;;;;;;;7.50;1.73;;;15.80;99.90;;;;;;4934738;29;20023;-68
2023/07/25 04:13:39;;;;;;;6.30;1.88;;;15.80;99.90;;;;;;4935587;29;20388;-66
2023/07/25 04:16:05;;;;;;;12.65;2.60;;;15.80;99.90;;;;;;4935536;29;20028;-67
2023/07/25 04:18:30;;;;;;;6.30;1.83;;;15.80;99.90;;;;;;4935233;29;20024;-67
2023/07/25 04:20:56;;;;;;;7.07;1.60;;;15.70;99.90;;;;;;4935265;29;20042;-66
2023/07/25 04:23:22;;;;;;;6.72;1.80;;;15.70;99.90;;;;;;4935781;29;20027;-67
2023/07/25 04:25:48;;;;;;;9.43;1.60;;;15.70;99.90;;;;;;4934974;29;20171;-67
2023/07/25 04:28:14;;;;;;;11.10;2.13;;;15.70;99.90;;;;;;4935460;29;20457;-67
2023/07/25 04:30:40;;;;;;;7.95;2.10;;;15.70;99.90;;;;;;4935296;29;20030;-67
2023/07/25 04:33:05;;;;;;;11.70;2.78;;;15.80;99.90;;;;;;4935283;29;20039;-67
2023/07/25 04:35:31;;;;;;;5.63;1.35;;;15.80;99.90;;;;;;4935239;29;20145;-67
2023/07/25 04:37:57;;;;;;;9.63;2.00;;;15.80;99.90;;;;;;4935081;29;20032;-67
2023/07/25 04:40:22;;;;;;;9.77;2.30;;;15.80;99.90;;;;;;4933647;29;20518;-68
2023/07/25 04:42:48;;;;;;;8.40;1.60;;;15.90;99.90;;;;;;4935320;29;20036;-67
2023/07/25 04:45:13;;;;;;;10.50;1.67;;;15.90;99.90;;;;;;4934739;29;20111;-67
2023/07/25 04:47:39;;;;;;;8.65;1.95;;;15.90;99.90;;;;;;4934773;29;20028;-67
2023/07/25 04:50:05;;;;;;;15.02;2.35;;;15.90;99.90;;;;;;4935068;29;20032;-67
2023/07/25 04:52:30;;;;;;;6.60;1.90;;;15.90;99.90;;;;;;4934911;29;20027;-67
2023/07/25 04:54:58;;;;;;;5.75;1.90;;;16.00;99.90;;;;;;4933439;29;20047;-68
2023/07/25 04:57:24;;;;;;;7.30;1.83;;;16.00;99.90;;;;;;4935197;29;20118;-68
2023/07/25 04:59:50;;;;;;;8.73;1.67;;;16.10;99.90;;;;;;4935025;29;20114;-68
2023/07/25 05:02:17;;;;;;;8.45;1.60;;;16.10;99.90;;;;;;4934901;29;20060;-68
2023/07/25 05:04:42;;;;;;;7.38;1.55;;;16.20;99.90;;;;;;4934615;29;20048;-68
2023/07/25 05:07:08;;;;;;;5.90;1.50;;;16.20;99.90;;;;;;4934563;29;20027;-68
2023/07/25 05:09:33;;;;;;;9.18;1.85;;;16.20;99.90;;;;;;4934426;29;20034;-68
2023/07/25 05:11:59;;;;;;;8.98;2.03;;;16.30;99.90;;;;;;4934799;29;20051;-68
2023/07/25 05:14:24;;;;;;;6.97;2.00;;;16.40;99.90;;;;;;4934712;29;20028;-68
2023/07/25 05:16:50;;;;;;;10.45;3.63;;;16.60;99.90;;;;;;4934680;29;20384;-68
2023/07/25 05:19:15;;;;;;;12.05;2.70;;;16.70;99.90;;;;;;4934859;29;20375;-68
2023/07/25 05:21:41;;;;;;;8.43;2.17;;;16.90;99.90;;;;;;4935046;29;20027;-68
2023/07/25 05:24:06;;;;;;;5.82;2.00;;;17.10;99.90;;;;;;4937884;29;20066;-68
2023/07/25 05:26:32;;;;;;;8.32;2.72;;;17.20;99.90;;;;;;4938823;29;20047;-68
2023/07/25 05:28:57;;;;;;;10.50;2.08;;;17.40;99.90;;;;;;4938549;29;20034;-67
2023/07/25 05:31:23;;;;;;;11.73;3.47;;;17.50;99.90;;;;;;4938448;29;20480;-67
2023/07/25 05:33:48;;;;;;;8.10;2.58;;;17.60;99.90;;;;;;4937755;29;20499;-67
2023/07/25 05:36:14;;;;;;;5.47;2.15;;;17.70;99.90;;;;;;4937149;29;20066;-67
2023/07/25 05:38:39;;;;;;;10.80;2.38;;;17.70;99.90;;;;;;4937825;29;20431;-67
2023/07/25 05:41:05;;;;;;;8.48;2.22;;;17.80;99.90;;;;;;4938085;29;20034;-67
2023/07/25 05:43:31;;;;;;;13.27;3.33;;;17.80;99.90;;;;;;4938109;29;20039;-67
2023/07/25 05:45:56;;;;;;;9.50;3.60;;;17.80;99.90;;;;;;4938147;29;20052;-67
2023/07/25 05:48:22;;;;;;;11.40;3.72;;;17.70;99.90;;;;;;4938328;29;20046;-68
2023/07/25 05:50:51;;;;;;;10.10;3.45;;;17.70;99.90;;;;;;4938193;29;20039;-67
2023/07/25 05:53:18;;;;;;;10.65;2.53;;;17.60;99.90;;;;;;4937716;29;20218;-67
2023/07/25 05:55:46;;;;;;;7.85;3.03;;;17.60;99.90;;;;;;4934088;29;20506;-67
2023/07/25 05:58:15;;;;;;;12.00;2.63;;;17.70;99.90;;;;;;4927421;29;20043;-67
2023/07/25 06:00:42;;;;;;;8.43;2.30;;;17.90;99.90;;;;;;4929230;29;20477;-67
2023/07/25 06:03:10;;;;;;;8.40;2.47;;;18.20;99.90;;;;;;4927684;29;20071;-66
2023/07/25 06:05:36;;;;;;;7.47;2.47;;;18.80;99.90;;;;;;4926444;29;20476;-67
2023/07/25 06:08:01;;;;;;;7.40;2.92;;;19.80;99.90;;;;;;4928441;29;20034;-66
2023/07/25 06:10:27;;;;;;;7.35;1.75;;;20.90;99.10;;;;;;4927538;29;20060;-67
2023/07/25 06:12:53;;;;;;;8.82;2.60;;;22.00;97.30;;;;;;4927344;29;20020;-67
2023/07/25 06:15:18;;;;;;;7.35;1.67;;;22.70;95.70;;;;;;4928761;29;20075;-68
2023/07/25 06:17:44;;;;;;;5.70;1.60;;;23.80;94.90;;;;;;4926943;29;20035;-68
2023/07/25 06:20:11;;;;;;;6.07;1.88;;;24.50;93.10;;;;;;4927615;29;20032;-68
2023/07/25 06:22:37;;;;;;;4.82;1.35;;;24.20;92.40;;;;;;4927961;29;20103;-67
2023/07/25 06:25:03;;;;;;;13.65;4.35;;;24.00;92.30;;;;;;4926722;29;20036;-67
2023/07/25 06:27:29;;;;;;;9.38;2.75;;;23.50;93.00;;;;;;4925285;29;20027;-66
2023/07/25 06:29:55;;;;;;;8.95;3.65;;;22.90;93.00;;;;;;4927478;29;20465;-67
2023/07/25 06:32:20;;;;;;;6.53;2.35;;;22.60;93.70;;;;;;4926488;29;20028;-67
2023/07/25 06:34:46;;;;;;;9.55;3.15;;;22.90;94.10;;;;;;4928086;29;20413;-68
2023/07/25 06:37:11;;;;;;;10.15;2.22;;;23.80;93.40;;;;;;4926777;29;20046;-66
2023/07/25 06:39:37;;;;;;;8.27;2.50;;;25.00;91.70;;;;;;4926936;29;20115;-66
2023/07/25 06:42:03;;;;;;;4.13;1.05;;;25.90;90.60;;;;;;4928226;29;20042;-67
2023/07/25 06:44:28;;;;;;;4.28;1.23;;;26.50;88.80;;;;;;4925042;29;20487;-68
2023/07/25 06:46:54;;;;;;;5.00;1.83;;;25.90;90.10;;;;;;4927481;29;20034;-68
2023/07/25 06:49:20;;;;;;;5.68;1.52;;;25.30;90.00;;;;;;4927876;29;20028;-68
2023/07/25 06:51:45;;;;;;;6.35;2.13;;;24.70;90.80;;;;;;4925759;29;20472;-68
2023/07/25 06:54:11;;;;;;;8.93;2.25;;;24.10;90.90;;;;;;4927748;29;20486;-68
2023/07/25 06:56:36;;;;;;;3.95;1.52;;;24.00;91.30;;;;;;4927160;29;20092;-68
2023/07/25 06:59:02;;;;;;;6.88;2.03;;;24.30;90.90;;;;;;4926099;29;20035;-68
2023/07/25 07:01:28;;;;;;;6.22;2.13;;;24.10;91.10;;;;;;4927556;29;20024;-68
2023/07/25 07:03:56;;;;;;;4.05;1.70;;;23.80;91.70;;;;;;4926405;29;20036;-68
2023/07/25 07:06:22;;;;;;;5.63;1.08;;;24.30;91.40;;;;;;4925618;29;20031;-68
2023/07/25 07:08:47;;;;;;;8.95;2.53;;;25.40;90.20;;;;;;4927549;29;20020;-68
2023/07/25 07:11:13;;;;;;;4.63;1.42;;;26.90;89.30;;;;;;4926597;29;20038;-69
2023/07/25 07:13:38;;;;;;;12.43;3.88;;;27.40;86.10;;;;;;4926255;29;20151;-68
2023/07/25 07:16:04;;;;;;;8.48;3.25;;;27.50;85.90;;;;;;4927825;29;20480;-68
2023/07/25 07:18:30;;;;;;;4.38;1.48;;;27.20;85.30;;;;;;4925589;29;20091;-68
2023/07/25 07:20:55;;;;;;;10.02;2.70;;;26.80;85.20;;;;;;4925865;29;20031;-68
2023/07/25 07:23:21;;;;;;;5.10;1.90;;;26.50;85.20;;;;;;4926672;29;20024;-68
2023/07/25 07:25:46;;;;;;;4.18;2.03;;;26.40;85.20;;;;;;4925185;29;20035;-66
2023/07/25 07:28:13;;;;;;;8.90;2.13;;;26.70;85.40;;;;;;4927083;29;20042;-66
2023/07/25 07:30:38;;;;;;;5.25;1.45;;;26.80;85.40;;;;;;4925628;29;20039;-66
2023/07/25 07:33:04;;;;;;;7.13;1.10;;;26.60;84.70;;;;;;4925617;29;20028;-66
2023/07/25 07:35:30;;;;;;;4.63;1.48;;;26.30;85.50;;;;;;4926805;29;20028;-66
2023/07/25 07:37:55;;;;;;;6.28;1.42;;;26.00;85.80;;;;;;4925358;29;20020;-67
2023/07/25 07:40:21;;;;;;;2.65;0.80;;;25.70;85.90;;;;;;4928212;29;20027;-66
2023/07/25 07:42:47;;;;;;;3.83;1.20;;;25.30;85.50;;;;;;4925646;29;20027;-67
2023/07/25 07:45:12;;;;;;;8.73;1.70;;;24.70;86.60;;;;;;4929611;29;20059;-66
2023/07/25 07:47:38;;;;;;;5.15;1.23;;;24.40;88.00;;;;;;4925621;29;20039;-67
2023/07/25 07:50:05;;;;;;;3.45;1.02;;;24.10;88.60;;;;;;4928956;29;20028;-67
2023/07/25 07:52:30;;;;;;;5.47;1.48;;;23.90;89.30;;;;;;4932571;29;20031;-67
2023/07/25 07:54:56;;;;;;;3.97;1.20;;;23.70;89.60;;;;;;4943497;29;20058;-67
2023/07/25 07:57:21;;;;;;;3.22;1.00;;;23.60;89.80;;;;;;4954590;29;20093;-67
2023/07/25 07:59:47;;;;;;;5.43;1.30;;;23.70;90.00;;;;;;4954483;29;20026;-67
2023/07/25 08:02:13;;;;;;;2.30;0.88;;;23.80;89.80;;;;;;4954460;29;20498;-67
2023/07/25 08:04:38;;;;;;;5.82;1.75;;;24.10;88.30;;;;;;4953952;29;20119;-67
2023/07/25 08:07:04;;;;;;;2.45;1.13;;;24.10;88.60;;;;;;4954602;29;20027;-67
2023/07/25 08:09:29;;;;;;;3.13;1.15;;;24.00;88.20;;;;;;4950765;29;20027;-67
2023/07/25 08:11:55;;;;;;;3.35;0.93;;;24.10;88.00;;;;;;4945210;29;20047;-67
2023/07/25 08:14:20;;;;;;;2.72;1.10;;;24.40;88.50;;;;;;4951038;29;20032;-67
2023/07/25 08:16:46;;;;;;;3.67;1.00;;;24.70;87.30;;;;;;4952789;29;20023;-67
2023/07/25 08:19:11;;;;;;;1.42;0.90;;;24.70;87.00;;;;;;4947049;29;20034;-67
2023/07/25 08:21:37;;;;;;;4.43;1.40;;;24.60;87.70;;;;;;4951629;29;20114;-67
2023/07/25 08:24:03;;;;;;;1.75;0.80;;;24.70;87.80;;;;;;4947353;29;20138;-67
2023/07/25 08:26:28;;;;;;;3.88;1.25;;;24.80;86.00;;;;;;4948506;29;20024;-67
2023/07/25 08:28:54;;;;;;;4.38;1.05;;;24.50;87.00;;;;;;4935166;29;20070;-67
2023/07/25 08:31:19;;;;;;;4.97;1.00;;;24.50;88.30;;;;;;4934870;29;20055;-67
2023/07/25 08:33:45;;;;;;;3.42;1.20;;;25.40;86.70;;;;;;4934616;29;20027;-67
2023/07/25 08:36:11;;;;;;;2.15;0.93;;;26.30;85.90;;;;;;4935084;29;20051;-67
2023/07/25 08:38:37;;;;;;;4.35;1.15;;;27.40;83.50;;;;;;4936033;29;20019;-67
2023/07/25 08:41:10;;;;;;;2.45;0.95;;;28.00;82.40;;;;;;4934835;29;20032;-67
2023/07/25 08:43:38;;;;;;;5.43;0.82;;;28.80;81.20;;;;;;4934463;29;20384;-67
2023/07/25 08:46:09;;;;;;;4.70;1.02;;;29.60;80.20;;;;;;4947875;29;20062;-67
2023/07/25 08:48:39;;;;;;;2.17;0.57;;;30.50;78.50;;;;;;4938008;28;20035;-67
2023/07/25 08:51:08;;;;;;;4.05;1.45;;;30.40;77.30;;;;;;4941309;28;20093;-67
2023/07/25 08:53:39;;;;;;;4.40;1.30;;;29.90;77.90;;;;;;4953048;28;20065;-67
2023/07/25 08:56:05;;;;;;;4.68;0.88;;;30.30;77.50;;;;;;4952951;28;20042;-68
2023/07/25 08:58:31;;;;;;;2.08;0.60;;;31.20;75.40;;;;;;4952722;28;20035;-67
2023/07/25 09:00:57;;;;;;;10.63;1.75;;;31.50;75.00;;;;;;4952802;28;20027;-67
2023/07/25 09:03:24;;;;;;;3.33;1.45;;;31.40;75.60;;;;;;4952925;28;20038;-67
2023/07/25 09:05:50;;;;;;;5.72;1.30;;;32.00;74.10;;;;;;4946864;28;20042;-67
2023/07/25 09:08:16;;;;;;;1.85;0.50;;;32.40;72.90;;;;;;4936070;29;20488;-67
2023/07/25 09:10:44;;;;;;;5.32;1.95;;;32.00;72.80;;;;;;4952159;29;20079;-67
2023/07/25 09:13:09;;;;;;;5.22;1.38;;;31.60;73.60;;;;;;4953608;29;20031;-67
2023/07/25 09:15:35;;;;;;;6.28;2.03;;;31.20;74.30;;;;;;4952790;29;20032;-66
2023/07/25 09:18:00;;;;;;;6.47;1.05;;;30.60;75.10;;;;;;4953180;29;20454;-67
2023/07/25 09:20:26;;;;;;;6.85;1.48;;;30.00;76.20;;;;;;4946021;29;20489;-67
2023/07/25 09:22:52;;;;;;;8.27;2.47;;;29.30;76.70;;;;;;4944223;29;20024;-67
2023/07/25 09:25:18;;;;;;;7.57;3.50;;;28.70;77.70;;;;;;4952953;29;20046;-66
2023/07/25 09:27:45;;;;;;;9.60;4.70;;;28.30;78.60;;;;;;4953577;29;20031;-66
2023/07/25 09:30:15;;;;;;;4.20;1.88;;;27.80;79.30;;;;;;4953606;28;20043;-67
2023/07/25 09:32:49;;;;;;;8.88;2.60;;;27.40;79.00;;;;;;4953655;28;20506;-67
2023/07/25 09:35:15;;;;;;;4.47;2.20;;;27.80;79.30;;;;;;4953566;28;20483;-66
2023/07/25 09:37:41;;;;;;;7.05;2.47;;;28.00;79.10;;;;;;4953558;29;20078;-67
2023/07/25 09:40:11;;;;;;;6.82;2.90;;;27.90;78.80;;;;;;4953768;29;20106;-67
2023/07/25 09:42:41;;;;;;;5.80;2.17;;;27.50;79.60;;;;;;4953286;28;20036;-67
2023/07/25 09:45:11;;;;;;;6.25;1.77;;;27.10;79.80;;;;;;4953194;28;20495;-66
2023/07/25 09:47:38;;;;;;;7.65;2.20;;;26.80;80.80;;;;;;4953605;28;20031;-66
2023/07/25 09:50:05;;;;;;;5.15;1.88;;;27.60;80.60;;;;;;4953673;28;20125;-67
2023/07/25 09:52:42;;;;;;;5.43;1.90;;;29.10;78.90;;;;;;4953524;28;20039;-67
2023/07/25 09:55:08;;;;;;;6.82;2.92;;;30.30;76.50;;;;;;4953405;28;20038;-67
2023/07/25 09:57:35;;;;;;;4.32;1.63;;;29.80;76.50;;;;;;4953571;28;20195;-66
2023/07/25 10:00:02;;;;;;;5.20;1.77;;;28.90;77.50;;;;;;4953467;28;20023;-67
2023/07/25 10:02:28;;;;;;;9.27;3.33;;;28.10;79.10;;;;;;4953442;29;20046;-66
2023/07/25 10:04:55;;;;;;;5.40;2.25;;;27.40;80.70;;;;;;4953233;29;20043;-66
2023/07/25 10:07:24;;;;;;;7.38;2.85;;;26.90;80.80;;;;;;4953399;28;20161;-67
2023/07/25 10:09:52;;;;;;;3.78;1.17;;;27.00;81.30;;;;;;4956323;28;20035;-67
2023/07/25 10:12:17;;;;;;;11.75;4.70;;;27.90;80.00;;;;;;4956935;28;20031;-67
2023/07/25 10:14:43;;;;;;;6.63;2.78;;;28.20;80.30;;;;;;4940975;29;20078;-67
2023/07/25 10:17:09;;;;;;;6.60;1.67;;;29.00;79.90;;;;;;4956726;29;20023;-67
2023/07/25 10:19:46;;;;;;;4.35;2.10;;;29.30;79.10;;;;;;4956635;28;20055;-67
2023/07/25 10:22:12;;;;;;;5.50;2.22;;;30.00;78.00;;;;;;4956457;28;20066;-68
2023/07/25 10:24:38;;;;;;;5.43;1.45;;;30.10;77.10;;;;;;4956670;28;20038;-68
2023/07/25 10:27:09;;;;;;;5.38;1.75;;;30.20;75.90;;;;;;4956863;29;20075;-67
2023/07/25 10:29:38;;;;;;;;;;;30.20;75.50;;;;;;4956937;28;20044;-67
2023/07/25 10:32:05;;;;;;;4.70;1.38;;;29.90;76.40;;;;;;4956705;28;19934;-67
2023/07/25 10:34:44;;;;;;;6.50;2.28;;;29.50;75.60;;;;;;4956289;28;20078;-67
2023/07/25 10:37:25;;;;;;;8.57;2.42;;;29.10;77.80;;;;;;4956381;28;20032;-67
2023/07/25 10:40:10;;;;;;;3.53;1.60;;;28.70;79.00;;;;;;4955286;28;20032;-67
2023/07/25 10:42:48;;;;;;;6.22;2.28;;;28.10;80.00;;;;;;4955909;28;20506;-67
2023/07/25 10:45:28;;;;;;;5.43;2.22;;;27.60;82.20;;;;;;4956288;29;20114;-67
2023/07/25 10:47:59;;;;;;;5.30;2.05;;;26.70;84.10;;;;;;4956346;29;20039;-67
2023/07/25 10:50:26;;;;;;;5.60;2.00;;;26.10;85.50;;;;;;4956193;28;20082;-67
2023/07/25 10:52:52;;;;;;;4.07;1.27;;;25.70;85.50;;;;;;4956289;28;20752;-67
2023/07/25 10:55:18;;;;;;;4.05;1.98;;;25.30;85.10;;;;;;4956152;29;20036;-67
2023/07/25 10:58:07;;;;;;;6.55;1.95;;;25.00;85.70;;;;;;4955760;28;20125;-68
2023/07/25 11:00:37;;;;;;;6.07;1.50;;;25.10;86.10;;;;;;4939880;28;20114;-68
2023/07/25 11:03:29;;;;;;;3.42;1.52;;;25.60;84.70;;;;;;4950325;28;20369;-67
2023/07/25 11:06:06;;;;;;;3.58;1.35;;;26.20;84.30;;;;;;4936185;29;20051;-68
2023/07/25 11:08:36;;;;;;;3.83;1.17;;;26.80;83.50;;;;;;4953770;29;20119;-68
2023/07/25 11:11:07;;;;;;;3.83;0.88;;;27.30;82.70;;;;;;4955851;28;20031;-68
2023/07/25 11:13:36;;;;;;;10.23;4.65;;;27.80;81.00;;;;;;4955755;28;20039;-68
2023/07/25 11:16:06;;;;;;;8.93;3.80;;;27.90;80.10;;;;;;4955247;28;20562;-68
2023/07/25 11:18:37;;;;;;;5.65;2.90;;;27.80;80.00;;;;;;4955776;28;20023;-68
2023/07/25 11:21:04;;;;;;;8.82;3.53;;;27.70;80.60;;;;;;4954842;28;20070;-67
2023/07/25 11:23:30;;;;;;;9.80;2.35;;;27.40;81.00;;;;;;4955186;28;20476;-67
2023/07/25 11:25:58;;;;;;;4.38;1.58;;;26.90;87.30;;;;;;4955752;28;20046;-67
2023/07/25 11:28:25;;;;;;;4.63;2.15;;;26.30;90.50;;;;;;4955475;28;20031;-67
2023/07/25 11:30:53;;;;;;;8.00;2.25;;;25.70;90.50;;;;;;4952089;28;20027;-67
2023/07/25 11:33:20;;;;;;;5.50;2.08;;;25.40;90.90;;;;;;4955679;28;20114;-67
2023/07/25 11:35:51;;;;;;;9.13;3.03;;;26.30;89.40;;;;;;4955337;28;20361;-67
2023/07/25 11:38:17;;;;;;;5.07;2.17;;;27.40;85.80;;;;;;4955581;28;20081;-68
2023/07/25 11:40:53;;;;;;;5.60;2.60;;;27.90;82.20;;;;;;4955526;28;20035;-68
2023/07/25 11:43:19;;;;;;;4.97;1.50;;;28.30;80.10;;;;;;4954874;28;20031;-68
2023/07/25 11:45:45;;;;;;;2.17;1.05;;;29.00;76.90;;;;;;4955077;28;20059;-66
2023/07/25 11:48:14;;;;;;;2.67;1.10;;;30.00;76.30;;;;;;4955158;28;20037;-66
2023/07/25 11:50:42;;;;;;;4.05;1.35;;;30.80;75.70;;;;;;4955136;28;20054;-66
2023/07/25 11:53:09;;;;;;;3.08;1.02;;;31.40;75.40;;;;;;4955137;28;20030;-67
2023/07/25 11:55:35;;;;;;;2.53;1.10;;;31.70;74.70;;;;;;4955090;28;20039;-67
2023/07/25 11:58:04;;;;;;;3.75;0.98;;;32.00;74.70;;;;;;4954861;29;20027;-66
2023/07/25 12:00:42;;;;;;;5.18;1.15;;;32.20;74.50;;;;;;4955021;29;20051;-67
2023/07/25 12:03:28;;;;;;;2.58;1.08;;;31.70;74.90;;;;;;4954952;28;20023;-67
2023/07/25 12:06:01;;;;;;;3.08;1.10;;;31.30;76.00;;;;;;4945716;28;20061;-67
2023/07/25 12:08:33;;;;;;;3.20;0.88;;;31.10;76.30;;;;;;4951624;28;20034;-67
2023/07/25 12:11:10;;;;;;;2.53;1.08;;;31.10;75.50;;;;;;4954786;28;20087;-67
2023/07/25 12:13:48;;;;;;;3.58;1.20;;;30.90;75.60;;;;;;4954923;28;20061;-67
2023/07/25 12:16:26;;;;;;;3.78;0.90;;;31.20;75.70;;;;;;4954618;28;20035;-67
2023/07/25 12:18:54;;;;;;;4.15;1.40;;;32.00;74.40;;;;;;4923892;29;20126;-67
2023/07/25 12:21:28;;;;;;;5.43;0.98;;;32.50;73.80;;;;;;4954644;28;20031;-67
2023/07/25 12:23:56;;;;;;;2.53;1.05;;;32.40;72.90;;;;;;4954551;28;20502;-68
2023/07/25 12:26:22;;;;;;;2.90;1.00;;;32.80;73.90;;;;;;4954659;28;20039;-67
2023/07/25 12:28:49;;;;;;;6.55;1.23;;;33.50;73.40;;;;;;4922664;29;20101;-66
2023/07/25 12:31:15;;;;;;;3.63;0.93;;;33.70;73.30;;;;;;4953869;28;20035;-66
2023/07/25 12:33:43;;;;;;;1.85;0.85;;;33.70;72.00;;;;;;4953318;29;20027;-67
2023/07/25 12:36:09;;;;;;;3.08;0.70;;;33.20;71.50;;;;;;4954567;28;20050;-67
2023/07/25 12:38:35;;;;;;;2.65;0.80;;;32.60;71.70;;;;;;4953839;29;20027;-68
2023/07/25 12:41:01;;;;;;;3.47;0.77;;;32.30;73.20;;;;;;4946084;28;20027;-68